sensor_id;sensor_type;location;lat;lon;timestamp;temperature;humidity
67862;DHT22;54665;51.462;6.698;2023-03-13T00:01:49;11.11;75.99
67862;DHT22;54665;51.462;6.698;2023-03-13T00:04:15;11.15;76.12
67862;DHT22;54665;51.462;6.698;2023-03-13T00:06:40;11.01;76.22
67862;DHT22;54665;51.462;6.698;2023-03-13T00:09:09;11.04;76.33
67862;DHT22;54665;51.462;6.698;2023-03-13T00:11:35;11.05;76.72
67862;DHT22;54665;51.462;6.698;2023-03-13T00:14:01;11.12;77.51
67862;DHT22;54665;51.462;6.698;2023-03-13T00:16:28;11.04;78.27
67862;DHT22;54665;51.462;6.698;2023-03-13T00:18:55;11.07;78.59
67862;DHT22;54665;51.462;6.698;2023-03-13T00:21:23;11.02;78.89
67862;DHT22;54665;51.462;6.698;2023-03-13T00:23:49;10.98;79.37
67862;DHT22;54665;51.462;6.698;2023-03-13T00:26:18;10.95;79.41
67862;DHT22;54665;51.462;6.698;2023-03-13T00:28:44;10.95;79.64
67862;DHT22;54665;51.462;6.698;2023-03-13T00:31:15;10.82;79.81
67862;DHT22;54665;51.462;6.698;2023-03-13T00:33:42;10.79;79.96
67862;DHT22;54665;51.462;6.698;2023-03-13T00:36:23;10.87;79.84
67862;DHT22;54665;51.462;6.698;2023-03-13T00:38:49;10.82;80.12
67862;DHT22;54665;51.462;6.698;2023-03-13T00:41:17;10.85;80.10
67862;DHT22;54665;51.462;6.698;2023-03-13T00:43:44;10.92;80.05
67862;DHT22;54665;51.462;6.698;2023-03-13T00:46:11;10.82;80.58
67862;DHT22;54665;51.462;6.698;2023-03-13T00:48:36;10.88;80.96
67862;DHT22;54665;51.462;6.698;2023-03-13T00:51:02;10.81;81.91
67862;DHT22;54665;51.462;6.698;2023-03-13T00:53:29;10.78;82.23
67862;DHT22;54665;51.462;6.698;2023-03-13T00:55:55;10.74;83.02
67862;DHT22;54665;51.462;6.698;2023-03-13T00:58:22;10.74;83.14
67862;DHT22;54665;51.462;6.698;2023-03-13T01:00:47;10.58;83.96
67862;DHT22;54665;51.462;6.698;2023-03-13T01:03:13;10.65;84.14
67862;DHT22;54665;51.462;6.698;2023-03-13T01:05:39;10.64;84.29
67862;DHT22;54665;51.462;6.698;2023-03-13T01:08:05;10.67;84.58
67862;DHT22;54665;51.462;6.698;2023-03-13T01:10:30;10.63;84.97
67862;DHT22;54665;51.462;6.698;2023-03-13T01:12:55;10.61;85.60
67862;DHT22;54665;51.462;6.698;2023-03-13T01:15:21;10.64;85.75
67862;DHT22;54665;51.462;6.698;2023-03-13T01:17:46;10.68;85.82
67862;DHT22;54665;51.462;6.698;2023-03-13T01:20:12;10.67;85.94
67862;DHT22;54665;51.462;6.698;2023-03-13T01:22:37;10.60;86.28
67862;DHT22;54665;51.462;6.698;2023-03-13T01:25:04;10.50;86.30
67862;DHT22;54665;51.462;6.698;2023-03-13T01:27:30;10.61;86.23
67862;DHT22;54665;51.462;6.698;2023-03-13T01:29:55;10.58;86.23
67862;DHT22;54665;51.462;6.698;2023-03-13T01:32:21;10.67;86.21
67862;DHT22;54665;51.462;6.698;2023-03-13T01:34:46;10.72;86.54
67862;DHT22;54665;51.462;6.698;2023-03-13T01:37:12;10.65;86.77
67862;DHT22;54665;51.462;6.698;2023-03-13T01:39:37;10.61;87.24
67862;DHT22;54665;51.462;6.698;2023-03-13T01:42:04;10.53;87.48
67862;DHT22;54665;51.462;6.698;2023-03-13T01:44:49;10.56;87.75
67862;DHT22;54665;51.462;6.698;2023-03-13T01:47:15;10.56;88.37
67862;DHT22;54665;51.462;6.698;2023-03-13T01:50:02;10.63;88.52
67862;DHT22;54665;51.462;6.698;2023-03-13T01:52:40;10.61;88.56
67862;DHT22;54665;51.462;6.698;2023-03-13T01:55:17;10.61;88.94
67862;DHT22;54665;51.462;6.698;2023-03-13T01:57:49;10.65;89.27
67862;DHT22;54665;51.462;6.698;2023-03-13T02:00:22;10.67;89.09
67862;DHT22;54665;51.462;6.698;2023-03-13T02:02:51;10.69;89.71
67862;DHT22;54665;51.462;6.698;2023-03-13T02:05:19;10.81;89.41
67862;DHT22;54665;51.462;6.698;2023-03-13T02:07:49;10.78;89.45
67862;DHT22;54665;51.462;6.698;2023-03-13T02:10:17;10.79;89.24
67862;DHT22;54665;51.462;6.698;2023-03-13T02:12:43;10.87;89.07
67862;DHT22;54665;51.462;6.698;2023-03-13T02:15:19;10.84;89.57
67862;DHT22;54665;51.462;6.698;2023-03-13T02:17:46;10.71;90.12
67862;DHT22;54665;51.462;6.698;2023-03-13T02:20:14;10.81;89.86
67862;DHT22;54665;51.462;6.698;2023-03-13T02:23:02;10.85;89.85
67862;DHT22;54665;51.462;6.698;2023-03-13T02:28:06;10.81;90.15
67862;DHT22;54665;51.462;6.698;2023-03-13T02:30:36;10.88;90.50
67862;DHT22;54665;51.462;6.698;2023-03-13T02:33:02;10.91;90.32
67862;DHT22;54665;51.462;6.698;2023-03-13T02:35:29;11.08;89.71
67862;DHT22;54665;51.462;6.698;2023-03-13T02:38:00;11.16;89.70
67862;DHT22;54665;51.462;6.698;2023-03-13T02:40:29;11.02;90.02
67862;DHT22;54665;51.462;6.698;2023-03-13T02:42:58;10.99;90.25
67862;DHT22;54665;51.462;6.698;2023-03-13T02:45:25;11.02;90.06
67862;DHT22;54665;51.462;6.698;2023-03-13T02:47:50;10.99;90.29
67862;DHT22;54665;51.462;6.698;2023-03-13T02:50:16;11.07;90.02
67862;DHT22;54665;51.462;6.698;2023-03-13T02:52:44;11.15;90.04
67862;DHT22;54665;51.462;6.698;2023-03-13T02:55:14;11.23;89.91
67862;DHT22;54665;51.462;6.698;2023-03-13T02:57:43;11.29;89.64
67862;DHT22;54665;51.462;6.698;2023-03-13T03:00:09;11.19;89.77
67862;DHT22;54665;51.462;6.698;2023-03-13T03:02:38;11.29;89.65
67862;DHT22;54665;51.462;6.698;2023-03-13T03:05:04;11.30;89.34
67862;DHT22;54665;51.462;6.698;2023-03-13T03:07:30;11.42;89.40
67862;DHT22;54665;51.462;6.698;2023-03-13T03:09:55;11.30;89.52
67862;DHT22;54665;51.462;6.698;2023-03-13T03:12:21;11.43;89.13
67862;DHT22;54665;51.462;6.698;2023-03-13T03:14:46;11.39;89.63
67862;DHT22;54665;51.462;6.698;2023-03-13T03:17:13;11.47;89.30
67862;DHT22;54665;51.462;6.698;2023-03-13T03:19:38;11.46;89.44
67862;DHT22;54665;51.462;6.698;2023-03-13T03:22:04;11.52;89.31
67862;DHT22;54665;51.462;6.698;2023-03-13T03:24:31;11.33;89.68
67862;DHT22;54665;51.462;6.698;2023-03-13T03:26:56;11.47;89.52
67862;DHT22;54665;51.462;6.698;2023-03-13T03:29:26;11.44;89.35
67862;DHT22;54665;51.462;6.698;2023-03-13T03:31:54;11.59;89.09
67862;DHT22;54665;51.462;6.698;2023-03-13T03:34:20;11.53;89.27
67862;DHT22;54665;51.462;6.698;2023-03-13T03:36:46;11.57;89.19
67862;DHT22;54665;51.462;6.698;2023-03-13T03:39:11;11.55;89.18
67862;DHT22;54665;51.462;6.698;2023-03-13T03:41:37;11.59;89.26
67862;DHT22;54665;51.462;6.698;2023-03-13T03:44:04;11.73;88.81
67862;DHT22;54665;51.462;6.698;2023-03-13T03:46:40;11.71;88.92
67862;DHT22;54665;51.462;6.698;2023-03-13T03:49:05;11.84;88.67
67862;DHT22;54665;51.462;6.698;2023-03-13T03:51:31;11.83;88.86
67862;DHT22;54665;51.462;6.698;2023-03-13T03:53:56;11.94;88.56
67862;DHT22;54665;51.462;6.698;2023-03-13T03:56:21;12.02;88.27
67862;DHT22;54665;51.462;6.698;2023-03-13T03:58:52;11.93;88.47
67862;DHT22;54665;51.462;6.698;2023-03-13T04:01:26;11.86;89.23
67862;DHT22;54665;51.462;6.698;2023-03-13T04:03:52;11.91;89.32
67862;DHT22;54665;51.462;6.698;2023-03-13T04:06:17;12.04;88.72
67862;DHT22;54665;51.462;6.698;2023-03-13T04:08:45;12.10;88.69
67862;DHT22;54665;51.462;6.698;2023-03-13T04:11:14;12.11;88.59
67862;DHT22;54665;51.462;6.698;2023-03-13T04:13:45;12.20;88.43
67862;DHT22;54665;51.462;6.698;2023-03-13T04:16:10;12.18;88.25
67862;DHT22;54665;51.462;6.698;2023-03-13T04:18:37;12.27;87.81
67862;DHT22;54665;51.462;6.698;2023-03-13T04:21:04;12.21;87.81
67862;DHT22;54665;51.462;6.698;2023-03-13T04:23:36;12.30;87.93
67862;DHT22;54665;51.462;6.698;2023-03-13T04:26:02;12.37;87.70
67862;DHT22;54665;51.462;6.698;2023-03-13T04:28:28;12.37;87.81
67862;DHT22;54665;51.462;6.698;2023-03-13T04:30:53;12.32;87.79
67862;DHT22;54665;51.462;6.698;2023-03-13T04:33:44;12.44;87.70
67862;DHT22;54665;51.462;6.698;2023-03-13T04:36:22;12.48;87.72
67862;DHT22;54665;51.462;6.698;2023-03-13T04:39:11;12.44;87.79
67862;DHT22;54665;51.462;6.698;2023-03-13T04:41:57;12.48;87.57
67862;DHT22;54665;51.462;6.698;2023-03-13T04:44:41;12.49;87.98
67862;DHT22;54665;51.462;6.698;2023-03-13T04:47:17;12.51;87.82
67862;DHT22;54665;51.462;6.698;2023-03-13T04:50:09;12.52;87.65
67862;DHT22;54665;51.462;6.698;2023-03-13T04:52:55;12.52;87.78
67862;DHT22;54665;51.462;6.698;2023-03-13T04:55:40;12.73;87.36
67862;DHT22;54665;51.462;6.698;2023-03-13T04:58:24;12.62;87.45
67862;DHT22;54665;51.462;6.698;2023-03-13T05:01:14;12.71;87.56
67862;DHT22;54665;51.462;6.698;2023-03-13T05:04:07;12.61;87.65
67862;DHT22;54665;51.462;6.698;2023-03-13T05:06:41;12.75;87.10
67862;DHT22;54665;51.462;6.698;2023-03-13T05:09:33;12.66;87.62
67862;DHT22;54665;51.462;6.698;2023-03-13T05:12:34;12.75;87.25
67862;DHT22;54665;51.462;6.698;2023-03-13T05:15:07;12.69;87.17
67862;DHT22;54665;51.462;6.698;2023-03-13T05:17:45;12.78;86.92
67862;DHT22;54665;51.462;6.698;2023-03-13T05:20:22;12.72;87.17
67862;DHT22;54665;51.462;6.698;2023-03-13T05:22:56;12.86;86.59
67862;DHT22;54665;51.462;6.698;2023-03-13T05:25:40;12.96;86.22
67862;DHT22;54665;51.462;6.698;2023-03-13T05:28:23;12.88;86.72
67862;DHT22;54665;51.462;6.698;2023-03-13T05:30:48;12.93;86.72
67862;DHT22;54665;51.462;6.698;2023-03-13T05:33:39;12.90;86.56
67862;DHT22;54665;51.462;6.698;2023-03-13T05:36:18;12.97;86.02
67862;DHT22;54665;51.462;6.698;2023-03-13T05:39:03;13.00;86.05
67862;DHT22;54665;51.462;6.698;2023-03-13T05:41:57;12.95;86.21
67862;DHT22;54665;51.462;6.698;2023-03-13T05:44:36;13.03;86.09
67862;DHT22;54665;51.462;6.698;2023-03-13T05:47:15;13.00;86.20
67862;DHT22;54665;51.462;6.698;2023-03-13T05:49:49;13.00;86.19
67862;DHT22;54665;51.462;6.698;2023-03-13T05:52:34;13.00;85.88
67862;DHT22;54665;51.462;6.698;2023-03-13T05:55:16;13.12;85.70
67862;DHT22;54665;51.462;6.698;2023-03-13T05:57:46;13.14;85.60
67862;DHT22;54665;51.462;6.698;2023-03-13T06:00:41;13.10;85.80
67862;DHT22;54665;51.462;6.698;2023-03-13T06:03:30;13.02;85.89
67862;DHT22;54665;51.462;6.698;2023-03-13T06:05:57;13.13;85.76
67862;DHT22;54665;51.462;6.698;2023-03-13T06:08:31;13.24;85.27
67862;DHT22;54665;51.462;6.698;2023-03-13T06:11:00;13.23;85.38
67862;DHT22;54665;51.462;6.698;2023-03-13T06:13:27;13.24;84.80
67862;DHT22;54665;51.462;6.698;2023-03-13T06:15:55;13.27;85.09
67862;DHT22;54665;51.462;6.698;2023-03-13T06:18:36;13.27;85.01
67862;DHT22;54665;51.462;6.698;2023-03-13T06:21:02;13.34;84.85
67862;DHT22;54665;51.462;6.698;2023-03-13T06:23:27;13.27;84.75
67862;DHT22;54665;51.462;6.698;2023-03-13T06:25:54;13.37;84.41
67862;DHT22;54665;51.462;6.698;2023-03-13T06:28:20;13.41;83.78
67862;DHT22;54665;51.462;6.698;2023-03-13T06:30:45;13.44;83.85
67862;DHT22;54665;51.462;6.698;2023-03-13T06:33:11;13.46;83.67
67862;DHT22;54665;51.462;6.698;2023-03-13T06:35:40;13.60;83.11
67862;DHT22;54665;51.462;6.698;2023-03-13T06:38:06;13.53;83.27
67862;DHT22;54665;51.462;6.698;2023-03-13T06:40:31;13.61;82.75
67862;DHT22;54665;51.462;6.698;2023-03-13T06:42:57;13.60;82.83
67862;DHT22;54665;51.462;6.698;2023-03-13T06:45:22;13.72;82.56
67862;DHT22;54665;51.462;6.698;2023-03-13T06:47:48;13.65;82.47
67862;DHT22;54665;51.462;6.698;2023-03-13T06:50:16;13.70;82.28
67862;DHT22;54665;51.462;6.698;2023-03-13T06:52:41;13.75;81.89
67862;DHT22;54665;51.462;6.698;2023-03-13T06:55:07;13.85;81.86
67862;DHT22;54665;51.462;6.698;2023-03-13T06:57:33;13.89;81.21
67862;DHT22;54665;51.462;6.698;2023-03-13T06:59:58;14.09;80.58
67862;DHT22;54665;51.462;6.698;2023-03-13T07:02:23;14.06;80.67
67862;DHT22;54665;51.462;6.698;2023-03-13T07:04:49;13.91;80.85
67862;DHT22;54665;51.462;6.698;2023-03-13T07:07:14;13.98;80.58
67862;DHT22;54665;51.462;6.698;2023-03-13T07:09:40;14.15;80.06
67862;DHT22;54665;51.462;6.698;2023-03-13T07:12:06;14.21;79.52
67862;DHT22;54665;51.462;6.698;2023-03-13T07:14:31;14.19;79.62
67862;DHT22;54665;51.462;6.698;2023-03-13T07:16:58;14.06;79.76
67862;DHT22;54665;51.462;6.698;2023-03-13T07:19:23;14.16;79.18
67862;DHT22;54665;51.462;6.698;2023-03-13T07:21:49;14.32;78.75
67862;DHT22;54665;51.462;6.698;2023-03-13T07:24:16;14.53;78.08
67862;DHT22;54665;51.462;6.698;2023-03-13T07:26:42;14.30;78.44
67862;DHT22;54665;51.462;6.698;2023-03-13T07:29:07;14.47;77.87
67862;DHT22;54665;51.462;6.698;2023-03-13T07:31:32;14.37;77.93
67862;DHT22;54665;51.462;6.698;2023-03-13T07:33:59;14.40;78.15
67862;DHT22;54665;51.462;6.698;2023-03-13T07:36:25;14.42;77.49
67862;DHT22;54665;51.462;6.698;2023-03-13T07:38:51;14.53;77.54
67862;DHT22;54665;51.462;6.698;2023-03-13T07:41:18;14.53;77.38
67862;DHT22;54665;51.462;6.698;2023-03-13T07:43:44;14.43;77.65
67862;DHT22;54665;51.462;6.698;2023-03-13T07:46:12;14.55;77.33
67862;DHT22;54665;51.462;6.698;2023-03-13T07:48:40;14.52;76.82
67862;DHT22;54665;51.462;6.698;2023-03-13T07:51:14;14.63;76.42
67862;DHT22;54665;51.462;6.698;2023-03-13T07:53:41;14.50;75.96
67862;DHT22;54665;51.462;6.698;2023-03-13T07:56:10;14.66;75.89
67862;DHT22;54665;51.462;6.698;2023-03-13T07:58:38;14.52;75.97
67862;DHT22;54665;51.462;6.698;2023-03-13T08:03:35;14.76;75.35
67862;DHT22;54665;51.462;6.698;2023-03-13T08:06:12;14.70;75.28
67862;DHT22;54665;51.462;6.698;2023-03-13T08:08:38;14.83;75.30
67862;DHT22;54665;51.462;6.698;2023-03-13T08:11:09;14.70;74.92
67862;DHT22;54665;51.462;6.698;2023-03-13T08:13:35;14.83;74.37
67862;DHT22;54665;51.462;6.698;2023-03-13T08:16:10;14.74;74.97
67862;DHT22;54665;51.462;6.698;2023-03-13T08:18:37;14.83;74.38
67862;DHT22;54665;51.462;6.698;2023-03-13T08:21:05;14.88;74.00
67862;DHT22;54665;51.462;6.698;2023-03-13T08:23:31;14.80;74.04
67862;DHT22;54665;51.462;6.698;2023-03-13T08:26:01;14.97;73.86
67862;DHT22;54665;51.462;6.698;2023-03-13T08:28:27;15.10;73.57
67862;DHT22;54665;51.462;6.698;2023-03-13T08:30:53;14.93;73.58
67862;DHT22;54665;51.462;6.698;2023-03-13T08:33:18;15.20;72.78
67862;DHT22;54665;51.462;6.698;2023-03-13T08:35:43;15.35;72.59
67862;DHT22;54665;51.462;6.698;2023-03-13T08:38:09;15.42;72.57
67862;DHT22;54665;51.462;6.698;2023-03-13T08:40:34;15.36;72.63
67862;DHT22;54665;51.462;6.698;2023-03-13T08:42:59;15.04;73.70
67862;DHT22;54665;51.462;6.698;2023-03-13T08:45:25;14.90;73.64
67862;DHT22;54665;51.462;6.698;2023-03-13T08:47:53;15.01;73.37
67862;DHT22;54665;51.462;6.698;2023-03-13T08:50:19;15.15;73.75
67862;DHT22;54665;51.462;6.698;2023-03-13T08:52:44;15.34;72.50
67862;DHT22;54665;51.462;6.698;2023-03-13T08:55:10;15.49;72.41
67862;DHT22;54665;51.462;6.698;2023-03-13T08:57:35;15.83;71.74
67862;DHT22;54665;51.462;6.698;2023-03-13T09:00:02;15.95;71.09
67862;DHT22;54665;51.462;6.698;2023-03-13T09:02:29;16.00;70.64
67862;DHT22;54665;51.462;6.698;2023-03-13T09:04:54;16.00;70.86
67862;DHT22;54665;51.462;6.698;2023-03-13T09:07:19;16.46;70.12
67862;DHT22;54665;51.462;6.698;2023-03-13T09:09:45;16.07;70.67
67862;DHT22;54665;51.462;6.698;2023-03-13T09:12:10;15.87;71.03
67862;DHT22;54665;51.462;6.698;2023-03-13T09:14:36;15.95;71.07
67862;DHT22;54665;51.462;6.698;2023-03-13T09:17:01;16.16;70.64
67862;DHT22;54665;51.462;6.698;2023-03-13T09:19:28;16.69;69.25
67862;DHT22;54665;51.462;6.698;2023-03-13T09:21:53;16.36;70.91
67862;DHT22;54665;51.462;6.698;2023-03-13T09:24:19;16.28;70.76
67862;DHT22;54665;51.462;6.698;2023-03-13T09:26:44;16.43;69.74
67862;DHT22;54665;51.462;6.698;2023-03-13T09:29:09;16.57;69.31
67862;DHT22;54665;51.462;6.698;2023-03-13T09:31:35;16.60;69.40
67862;DHT22;54665;51.462;6.698;2023-03-13T09:34:02;16.54;69.70
67862;DHT22;54665;51.462;6.698;2023-03-13T09:36:28;16.95;69.06
67862;DHT22;54665;51.462;6.698;2023-03-13T09:38:56;16.63;69.16
67862;DHT22;54665;51.462;6.698;2023-03-13T09:41:30;16.58;69.59
67862;DHT22;54665;51.462;6.698;2023-03-13T09:44:20;16.41;70.68
67862;DHT22;54665;51.462;6.698;2023-03-13T09:47:02;16.55;71.08
67862;DHT22;54665;51.462;6.698;2023-03-13T09:49:41;17.35;68.42
67862;DHT22;54665;51.462;6.698;2023-03-13T09:52:15;17.51;67.92
67862;DHT22;54665;51.462;6.698;2023-03-13T09:57:45;17.25;68.37
67862;DHT22;54665;51.462;6.698;2023-03-13T10:00:21;17.70;66.93
67862;DHT22;54665;51.462;6.698;2023-03-13T10:05:37;17.60;66.84
67862;DHT22;54665;51.462;6.698;2023-03-13T10:08:15;17.27;68.01
67862;DHT22;54665;51.462;6.698;2023-03-13T10:13:14;17.20;68.10
67862;DHT22;54665;51.462;6.698;2023-03-13T10:15:54;17.36;67.82
67862;DHT22;54665;51.462;6.698;2023-03-13T10:18:22;17.20;68.76
67862;DHT22;54665;51.462;6.698;2023-03-13T10:20:53;17.12;67.38
67862;DHT22;54665;51.462;6.698;2023-03-13T10:23:26;17.16;67.47
67862;DHT22;54665;51.462;6.698;2023-03-13T10:25:54;16.91;67.53
67862;DHT22;54665;51.462;6.698;2023-03-13T10:28:19;16.99;67.31
67862;DHT22;54665;51.462;6.698;2023-03-13T10:30:49;17.02;68.14
67862;DHT22;54665;51.462;6.698;2023-03-13T10:33:19;17.08;67.02
67862;DHT22;54665;51.462;6.698;2023-03-13T10:35:45;17.69;65.95
67862;DHT22;54665;51.462;6.698;2023-03-13T10:38:18;18.24;64.21
67862;DHT22;54665;51.462;6.698;2023-03-13T10:40:56;18.22;63.99
67862;DHT22;54665;51.462;6.698;2023-03-13T10:43:24;18.28;64.03
67862;DHT22;54665;51.462;6.698;2023-03-13T10:45:50;18.21;63.53
67862;DHT22;54665;51.462;6.698;2023-03-13T10:48:25;17.54;65.05
67862;DHT22;54665;51.462;6.698;2023-03-13T10:50:54;17.66;65.06
67862;DHT22;54665;51.462;6.698;2023-03-13T10:56:03;17.60;64.69
67862;DHT22;54665;51.462;6.698;2023-03-13T10:58:35;17.76;64.26
67862;DHT22;54665;51.462;6.698;2023-03-13T11:01:23;17.73;64.65
67862;DHT22;54665;51.462;6.698;2023-03-13T11:03:54;17.84;63.80
67862;DHT22;54665;51.462;6.698;2023-03-13T11:09:13;17.60;64.42
67862;DHT22;54665;51.462;6.698;2023-03-13T11:12:12;17.80;64.29
67862;DHT22;54665;51.462;6.698;2023-03-13T11:14:43;17.98;63.36
67862;DHT22;54665;51.462;6.698;2023-03-13T11:17:27;18.29;63.23
67862;DHT22;54665;51.462;6.698;2023-03-13T11:20:17;17.80;63.49
67862;DHT22;54665;51.462;6.698;2023-03-13T11:25:52;18.53;62.04
67862;DHT22;54665;51.462;6.698;2023-03-13T11:31:08;17.94;62.19
67862;DHT22;54665;51.462;6.698;2023-03-13T11:36:25;17.87;63.21
67862;DHT22;54665;51.462;6.698;2023-03-13T11:39:01;18.00;62.57
67862;DHT22;54665;51.462;6.698;2023-03-13T11:41:42;17.74;63.62
67862;DHT22;54665;51.462;6.698;2023-03-13T11:44:38;17.69;63.49
67862;DHT22;54665;51.462;6.698;2023-03-13T11:56:03;18.09;60.07
67862;DHT22;54665;51.462;6.698;2023-03-13T11:58:37;18.05;59.10
67862;DHT22;54665;51.462;6.698;2023-03-13T12:06:58;18.15;59.26
67862;DHT22;54665;51.462;6.698;2023-03-13T12:09:25;18.04;60.20
67862;DHT22;54665;51.462;6.698;2023-03-13T12:11:56;17.84;59.71
67862;DHT22;54665;51.462;6.698;2023-03-13T12:14:46;18.12;59.75
67862;DHT22;54665;51.462;6.698;2023-03-13T12:17:25;18.02;60.49
67862;DHT22;54665;51.462;6.698;2023-03-13T12:20:01;17.93;59.24
67862;DHT22;54665;51.462;6.698;2023-03-13T12:22:42;17.84;59.38
67862;DHT22;54665;51.462;6.698;2023-03-13T12:25:29;18.37;58.70
67862;DHT22;54665;51.462;6.698;2023-03-13T12:28:03;17.97;58.57
67862;DHT22;54665;51.462;6.698;2023-03-13T12:30:47;17.81;56.90
67862;DHT22;54665;51.462;6.698;2023-03-13T12:35:57;17.91;58.14
67862;DHT22;54665;51.462;6.698;2023-03-13T12:38:33;18.05;57.60
67862;DHT22;54665;51.462;6.698;2023-03-13T12:43:35;18.18;56.72
67862;DHT22;54665;51.462;6.698;2023-03-13T12:57:57;18.22;60.16
67862;DHT22;54665;51.462;6.698;2023-03-13T13:00:25;18.05;60.56
67862;DHT22;54665;51.462;6.698;2023-03-13T13:05:58;17.83;60.54
67862;DHT22;54665;51.462;6.698;2023-03-13T13:08:25;17.84;60.59
67862;DHT22;54665;51.462;6.698;2023-03-13T13:10:50;18.25;60.08
67862;DHT22;54665;51.462;6.698;2023-03-13T13:13:24;18.15;59.67
67862;DHT22;54665;51.462;6.698;2023-03-13T13:16:05;18.47;59.35
67862;DHT22;54665;51.462;6.698;2023-03-13T13:18:33;18.90;58.25
67862;DHT22;54665;51.462;6.698;2023-03-13T13:23:29;18.35;58.45
67862;DHT22;54665;51.462;6.698;2023-03-13T13:26:36;18.07;58.29
67862;DHT22;54665;51.462;6.698;2023-03-13T13:31:44;18.25;58.07
67862;DHT22;54665;51.462;6.698;2023-03-13T13:39:43;17.83;59.06
67862;DHT22;54665;51.462;6.698;2023-03-13T13:45:03;18.22;59.80
67862;DHT22;54665;51.462;6.698;2023-03-13T13:47:30;17.81;60.24
67862;DHT22;54665;51.462;6.698;2023-03-13T13:49:58;17.71;60.66
67862;DHT22;54665;51.462;6.698;2023-03-13T13:54:57;17.74;61.25
67862;DHT22;54665;51.462;6.698;2023-03-13T13:57:30;17.76;61.38
67862;DHT22;54665;51.462;6.698;2023-03-13T14:00:19;17.80;60.95
67862;DHT22;54665;51.462;6.698;2023-03-13T14:02:51;17.86;60.56
67862;DHT22;54665;51.462;6.698;2023-03-13T14:05:25;17.97;61.04
67862;DHT22;54665;51.462;6.698;2023-03-13T14:07:59;17.57;61.66
67862;DHT22;54665;51.462;6.698;2023-03-13T14:10:40;17.40;62.16
67862;DHT22;54665;51.462;6.698;2023-03-13T14:13:17;17.59;62.24
67862;DHT22;54665;51.462;6.698;2023-03-13T14:15:48;17.49;62.90
67862;DHT22;54665;51.462;6.698;2023-03-13T14:18:19;17.59;62.20
67862;DHT22;54665;51.462;6.698;2023-03-13T14:23:38;17.73;61.60
67862;DHT22;54665;51.462;6.698;2023-03-13T14:26:17;17.78;61.91
67862;DHT22;54665;51.462;6.698;2023-03-13T14:28:51;18.07;61.78
67862;DHT22;54665;51.462;6.698;2023-03-13T14:31:31;17.78;62.32
67862;DHT22;54665;51.462;6.698;2023-03-13T14:33:59;17.62;62.40
67862;DHT22;54665;51.462;6.698;2023-03-13T14:36:25;17.57;62.50
67862;DHT22;54665;51.462;6.698;2023-03-13T14:38:58;17.62;62.02
67862;DHT22;54665;51.462;6.698;2023-03-13T14:41:35;17.71;62.40
67862;DHT22;54665;51.462;6.698;2023-03-13T14:44:03;17.93;61.82
67862;DHT22;54665;51.462;6.698;2023-03-13T14:46:31;18.22;61.27
67862;DHT22;54665;51.462;6.698;2023-03-13T14:49:24;18.24;61.78
67862;DHT22;54665;51.462;6.698;2023-03-13T14:52:26;18.04;62.16
67862;DHT22;54665;51.462;6.698;2023-03-13T14:54:55;17.90;61.35
67862;DHT22;54665;51.462;6.698;2023-03-13T14:57:25;17.83;61.55
67862;DHT22;54665;51.462;6.698;2023-03-13T15:00:20;17.83;61.40
67862;DHT22;54665;51.462;6.698;2023-03-13T15:02:40;17.66;60.55
67862;DHT22;54665;51.462;6.698;2023-03-13T15:05:30;17.76;59.84
67862;DHT22;54665;51.462;6.698;2023-03-13T15:07:56;17.84;59.75
67862;DHT22;54665;51.462;6.698;2023-03-13T15:10:25;17.98;59.70
67862;DHT22;54665;51.462;6.698;2023-03-13T15:12:55;17.71;59.34
67862;DHT22;54665;51.462;6.698;2023-03-13T15:15:20;17.67;60.06
67862;DHT22;54665;51.462;6.698;2023-03-13T15:17:46;17.51;59.60
67862;DHT22;54665;51.462;6.698;2023-03-13T15:20:13;17.66;59.93
67862;DHT22;54665;51.462;6.698;2023-03-13T15:22:41;17.84;59.88
67862;DHT22;54665;51.462;6.698;2023-03-13T15:25:21;17.71;59.64
67862;DHT22;54665;51.462;6.698;2023-03-13T15:27:50;17.88;59.91
67862;DHT22;54665;51.462;6.698;2023-03-13T15:30:17;18.24;58.86
67862;DHT22;54665;51.462;6.698;2023-03-13T15:32:44;18.86;57.54
67862;DHT22;54665;51.462;6.698;2023-03-13T15:35:30;18.55;56.90
67862;DHT22;54665;51.462;6.698;2023-03-13T15:37:58;18.31;58.55
67862;DHT22;54665;51.462;6.698;2023-03-13T15:40:24;18.32;60.01
67862;DHT22;54665;51.462;6.698;2023-03-13T15:42:51;18.31;59.91
67862;DHT22;54665;51.462;6.698;2023-03-13T15:45:17;17.83;60.87
67862;DHT22;54665;51.462;6.698;2023-03-13T15:47:43;17.86;61.12
67862;DHT22;54665;51.462;6.698;2023-03-13T15:50:13;18.04;61.27
67862;DHT22;54665;51.462;6.698;2023-03-13T15:52:38;17.93;61.40
67862;DHT22;54665;51.462;6.698;2023-03-13T15:55:05;17.78;61.87
67862;DHT22;54665;51.462;6.698;2023-03-13T15:57:35;17.25;62.83
67862;DHT22;54665;51.462;6.698;2023-03-13T16:00:05;17.14;63.24
67862;DHT22;54665;51.462;6.698;2023-03-13T16:02:32;17.09;63.11
67862;DHT22;54665;51.462;6.698;2023-03-13T16:04:57;17.11;63.14
67862;DHT22;54665;51.462;6.698;2023-03-13T16:07:23;17.11;63.28
67862;DHT22;54665;51.462;6.698;2023-03-13T16:09:49;17.19;62.78
67862;DHT22;54665;51.462;6.698;2023-03-13T16:12:14;17.01;63.54
67862;DHT22;54665;51.462;6.698;2023-03-13T16:14:40;17.15;63.34
67862;DHT22;54665;51.462;6.698;2023-03-13T16:17:15;16.82;63.71
67862;DHT22;54665;51.462;6.698;2023-03-13T16:19:41;16.89;63.26
67862;DHT22;54665;51.462;6.698;2023-03-13T16:22:07;16.92;63.18
67862;DHT22;54665;51.462;6.698;2023-03-13T16:24:32;16.75;63.24
67862;DHT22;54665;51.462;6.698;2023-03-13T16:26:58;16.82;63.67
67862;DHT22;54665;51.462;6.698;2023-03-13T16:29:23;16.82;63.50
67862;DHT22;54665;51.462;6.698;2023-03-13T16:31:49;16.79;63.58
67862;DHT22;54665;51.462;6.698;2023-03-13T16:34:15;16.63;64.03
67862;DHT22;54665;51.462;6.698;2023-03-13T16:36:40;16.54;64.16
67862;DHT22;54665;51.462;6.698;2023-03-13T16:39:09;16.18;64.91
67862;DHT22;54665;51.462;6.698;2023-03-13T16:41:36;16.23;65.07
67862;DHT22;54665;51.462;6.698;2023-03-13T16:44:02;16.06;65.21
67862;DHT22;54665;51.462;6.698;2023-03-13T16:46:39;16.18;65.28
67862;DHT22;54665;51.462;6.698;2023-03-13T16:49:06;16.03;65.52
67862;DHT22;54665;51.462;6.698;2023-03-13T16:51:35;15.96;65.36
67862;DHT22;54665;51.462;6.698;2023-03-13T16:54:01;15.99;65.20
67862;DHT22;54665;51.462;6.698;2023-03-13T16:59:02;15.89;65.08
67862;DHT22;54665;51.462;6.698;2023-03-13T17:01:27;15.93;64.82
67862;DHT22;54665;51.462;6.698;2023-03-13T17:03:55;15.87;64.79
67862;DHT22;54665;51.462;6.698;2023-03-13T17:06:23;15.82;64.91
67862;DHT22;54665;51.462;6.698;2023-03-13T17:08:49;15.75;65.08
67862;DHT22;54665;51.462;6.698;2023-03-13T17:11:16;15.69;65.08
67862;DHT22;54665;51.462;6.698;2023-03-13T17:13:43;15.67;64.93
67862;DHT22;54665;51.462;6.698;2023-03-13T17:16:23;15.66;64.86